createdAt,value
2019-06-01T00:00:13.719Z,91.90
2019-06-01T00:02:45.272Z,91.80
2019-06-01T00:05:14.031Z,91.70
2019-06-01T00:07:42.999Z,91.70
2019-06-01T00:10:11.819Z,91.80
2019-06-01T00:12:41.397Z,91.80
2019-06-01T00:15:10.035Z,92.00
2019-06-01T00:17:39.590Z,92.20
2019-06-01T00:20:08.283Z,92.10
2019-06-01T00:22:36.806Z,92.00
2019-06-01T00:25:06.019Z,91.90
2019-06-01T00:27:34.556Z,92.00
2019-06-01T00:30:03.035Z,91.90
2019-06-01T00:32:31.538Z,91.70
2019-06-01T00:35:00.041Z,91.80
2019-06-01T00:37:28.512Z,91.70
2019-06-01T00:39:57.047Z,91.70
2019-06-01T00:42:25.488Z,91.50
2019-06-01T00:44:53.962Z,91.50
2019-06-01T00:47:22.425Z,91.50
2019-06-01T00:49:51.119Z,91.50
2019-06-01T00:52:19.611Z,91.50
2019-06-01T00:54:49.410Z,91.40
2019-06-01T00:57:18.187Z,91.40
2019-06-01T00:59:47.983Z,91.50
2019-06-01T01:02:16.682Z,91.50
2019-06-01T01:04:46.382Z,91.50
2019-06-01T01:07:15.004Z,91.60
2019-06-01T01:09:44.680Z,91.60
2019-06-01T01:12:13.383Z,91.80
2019-06-01T01:14:41.840Z,91.80
2019-06-01T01:17:10.286Z,91.80
2019-06-01T01:19:38.743Z,91.60
2019-06-01T01:22:07.204Z,91.50
2019-06-01T01:24:35.666Z,91.40
2019-06-01T01:27:04.264Z,91.30
2019-06-01T01:29:32.739Z,91.10
2019-06-01T01:32:01.177Z,91.10
2019-06-01T01:34:29.647Z,91.10
2019-06-01T01:36:58.162Z,91.10
2019-06-01T01:39:26.634Z,90.90
2019-06-01T01:41:56.251Z,90.70
2019-06-01T01:44:24.919Z,90.80
2019-06-01T01:46:53.388Z,90.80
2019-06-01T01:49:21.853Z,90.70
2019-06-01T01:51:50.456Z,90.60
2019-06-01T01:54:19.139Z,90.70
2019-06-01T01:56:47.588Z,90.70
2019-06-01T01:59:16.051Z,90.70
2019-06-01T02:01:44.584Z,90.60
2019-06-01T02:04:13.027Z,90.60
2019-06-01T02:06:41.568Z,90.60
2019-06-01T02:09:10.099Z,90.50
2019-06-01T02:11:38.987Z,90.50
2019-06-01T02:14:07.462Z,90.50
2019-06-01T02:16:35.988Z,90.50
2019-06-01T02:19:04.516Z,90.40
2019-06-01T02:21:34.631Z,90.40
2019-06-01T02:24:03.352Z,90.50
2019-06-01T02:26:32.008Z,90.50
2019-06-01T02:29:02.187Z,90.60
2019-06-01T02:31:41.474Z,90.70
2019-06-01T02:34:03.065Z,90.80
2019-06-01T02:36:31.130Z,90.80
2019-06-01T02:39:01.117Z,90.80
2019-06-01T02:41:29.769Z,90.80
2019-06-01T02:43:59.148Z,90.80
2019-06-01T02:46:27.769Z,91.00
2019-06-01T02:48:57.393Z,91.00
2019-06-01T02:51:25.973Z,91.10
2019-06-01T02:53:55.511Z,91.10
2019-06-01T02:56:24.203Z,91.20
2019-06-01T02:58:52.663Z,91.50
2019-06-01T03:01:53.874Z,91.20
2019-06-01T03:04:10.683Z,91.20
2019-06-01T03:06:41.975Z,90.90
2019-06-01T03:09:11.198Z,91.00
2019-06-01T03:11:40.908Z,90.80
2019-06-01T03:14:11.072Z,90.90
2019-06-01T03:16:41.373Z,90.90
2019-06-01T03:19:09.950Z,91.00
2019-06-01T03:21:38.473Z,91.00
2019-06-01T03:24:13.049Z,91.20
2019-06-01T03:26:44.445Z,91.30
2019-06-01T03:29:15.105Z,91.10
2019-06-01T03:31:43.842Z,90.90
2019-06-01T03:34:14.005Z,90.90
2019-06-01T03:36:43.187Z,90.90
2019-06-01T03:39:13.042Z,90.70
2019-06-01T03:41:42.347Z,90.70
2019-06-01T03:44:10.827Z,90.80
2019-06-01T03:46:39.439Z,90.90
2019-06-01T03:49:07.991Z,90.90
2019-06-01T03:51:36.464Z,90.90
2019-06-01T03:54:06.390Z,90.90
2019-06-01T03:56:35.314Z,90.90
2019-06-01T03:59:04.988Z,91.00
2019-06-01T04:01:33.603Z,90.70
2019-06-01T04:04:03.053Z,90.60
2019-06-01T04:06:31.768Z,90.60
2019-06-01T04:09:01.450Z,90.40
2019-06-01T04:11:30.144Z,90.30
2019-06-01T04:13:58.672Z,90.20
2019-06-01T04:16:27.122Z,90.10
2019-06-01T04:18:55.602Z,90.00
2019-06-01T04:21:24.059Z,90.00
2019-06-01T04:23:52.527Z,90.00
2019-06-01T04:26:20.996Z,89.80
2019-06-01T04:28:49.551Z,89.20
2019-06-01T04:31:18.075Z,88.70
2019-06-01T04:33:46.529Z,88.20
2019-06-01T04:36:14.999Z,86.90
2019-06-01T04:38:43.479Z,86.20
2019-06-01T04:41:12.066Z,85.10
2019-06-01T04:43:40.688Z,83.60
2019-06-01T04:46:10.247Z,82.00
2019-06-01T04:48:38.907Z,81.40
2019-06-01T04:51:08.709Z,81.00
2019-06-01T04:53:37.339Z,80.70
2019-06-01T04:56:07.020Z,80.60
2019-06-01T04:58:35.631Z,80.60
2019-06-01T05:01:04.823Z,79.30
2019-06-01T05:03:33.360Z,78.90
2019-06-01T05:06:01.834Z,79.30
2019-06-01T05:08:30.280Z,79.90
2019-06-01T05:10:58.798Z,80.50
2019-06-01T05:13:27.256Z,81.00
2019-06-01T05:15:55.708Z,81.40
2019-06-01T05:18:24.171Z,81.60
2019-06-01T05:20:52.702Z,82.00
2019-06-01T05:23:21.159Z,82.10
2019-06-01T05:25:52.700Z,82.70
2019-06-01T05:28:19.806Z,82.40
2019-06-01T05:30:48.285Z,82.70
2019-06-01T05:33:31.030Z,82.50
2019-06-01T05:35:47.013Z,82.50
2019-06-01T05:38:16.540Z,81.90
2019-06-01T05:40:45.066Z,82.40
2019-06-01T05:43:16.162Z,82.50
2019-06-01T05:45:43.737Z,82.50
2019-06-01T05:48:16.058Z,82.60
2019-06-01T05:50:42.385Z,82.70
2019-06-01T05:53:10.922Z,82.30
2019-06-01T05:55:39.435Z,82.10
2019-06-01T05:58:07.892Z,81.80
2019-06-01T06:00:43.662Z,81.50
2019-06-01T06:03:15.067Z,81.80
2019-06-01T06:05:42.495Z,81.00
2019-06-01T06:08:12.684Z,80.40
2019-06-01T06:10:41.111Z,80.00
2019-06-01T06:13:09.587Z,80.20
2019-06-01T06:15:38.037Z,80.10
2019-06-01T06:18:06.571Z,79.70
2019-06-01T06:20:35.023Z,79.80
2019-06-01T06:23:03.502Z,80.10
2019-06-01T06:25:33.952Z,79.70
2019-06-01T06:28:02.158Z,79.50
2019-06-01T06:30:30.615Z,79.30
2019-06-01T06:32:59.082Z,79.20
2019-06-01T06:35:27.588Z,78.90
2019-06-01T06:37:56.066Z,78.70
2019-06-01T06:40:24.591Z,78.00
2019-06-01T06:42:53.936Z,77.60
2019-06-01T06:45:22.839Z,77.10
2019-06-01T06:47:51.415Z,75.70
2019-06-01T06:50:20.018Z,74.10
2019-06-01T06:52:48.470Z,74.60
2019-06-01T06:55:17.787Z,72.50
2019-06-01T06:57:46.356Z,70.30
2019-06-01T07:00:16.274Z,70.30
2019-06-01T07:02:45.035Z,68.20
2019-06-01T07:05:13.549Z,67.10
2019-06-01T07:07:42.085Z,66.40
2019-06-01T07:10:11.068Z,61.30
2019-06-01T07:12:39.525Z,56.90
2019-06-01T07:15:08.442Z,54.90
2019-06-01T07:17:36.977Z,51.40
2019-06-01T07:20:07.110Z,49.60
2019-06-01T07:22:35.668Z,48.60
2019-06-01T07:25:06.067Z,48.70
2019-06-01T07:27:34.580Z,48.60
2019-06-01T07:30:03.297Z,49.10
2019-06-01T07:32:32.840Z,50.10
2019-06-01T07:35:07.082Z,51.00
2019-06-01T07:37:35.561Z,51.10
2019-06-01T07:40:06.813Z,49.80
2019-06-01T07:42:37.175Z,50.20
2019-06-01T07:45:06.552Z,50.20
2019-06-01T07:47:35.100Z,50.60
2019-06-01T07:50:07.512Z,51.80
2019-06-01T07:52:36.016Z,53.70
2019-06-01T07:55:07.879Z,56.50
2019-06-01T07:57:36.342Z,58.40
2019-06-01T08:00:07.004Z,59.60
2019-06-01T08:02:35.471Z,60.20
2019-06-01T08:05:08.045Z,60.50
2019-06-01T08:07:36.493Z,61.90
2019-06-01T08:10:06.666Z,62.10
2019-06-01T08:12:35.202Z,62.30
2019-06-01T08:15:06.290Z,63.50
2019-06-01T08:17:34.930Z,60.30
2019-06-01T08:20:03.728Z,55.30
2019-06-01T08:22:32.231Z,50.00
2019-06-01T08:25:00.715Z,46.60
2019-06-01T08:27:30.530Z,44.60
2019-06-01T08:29:59.151Z,42.30
2019-06-01T08:32:28.615Z,38.50
2019-06-01T08:35:07.855Z,38.60
2019-06-01T08:37:27.486Z,37.20
2019-06-01T08:39:59.150Z,39.00
2019-06-01T08:42:27.377Z,40.80
2019-06-01T08:44:56.019Z,41.00
2019-06-01T08:47:25.576Z,43.00
2019-06-01T08:49:54.334Z,45.20
2019-06-01T08:52:23.866Z,46.40
2019-06-01T08:54:52.502Z,47.20
2019-06-01T08:57:20.947Z,48.60
2019-06-01T08:59:49.423Z,50.40
2019-06-01T09:02:18.224Z,51.80
2019-06-01T09:04:47.113Z,51.80
2019-06-01T09:07:15.584Z,50.40
2019-06-01T09:09:44.055Z,50.40
2019-06-01T09:12:12.510Z,48.30
2019-06-01T09:14:41.534Z,46.40
2019-06-01T09:17:09.983Z,44.80
2019-06-01T09:19:38.458Z,43.00
2019-06-01T09:22:07.036Z,42.80
2019-06-01T09:24:36.180Z,41.40
2019-06-01T09:27:05.127Z,40.90
2019-06-01T09:29:34.105Z,40.90
2019-06-01T09:32:02.635Z,40.50
2019-06-01T09:34:32.145Z,39.60
2019-06-01T09:37:00.916Z,37.40
2019-06-01T09:39:29.434Z,37.10
2019-06-01T09:41:57.883Z,38.30
2019-06-01T09:44:26.876Z,40.10
2019-06-01T09:46:55.411Z,39.90
2019-06-01T09:49:23.851Z,38.70
2019-06-01T09:51:52.319Z,37.40
2019-06-01T09:54:20.865Z,37.70
2019-06-01T09:56:49.402Z,39.00
2019-06-01T09:59:17.937Z,38.90
2019-06-01T10:01:46.521Z,39.00
2019-06-01T10:04:15.072Z,39.30
2019-06-01T10:06:43.633Z,40.90
2019-06-01T10:09:12.078Z,39.20
2019-06-01T10:11:42.282Z,38.80
2019-06-01T10:14:10.959Z,38.40
2019-06-01T10:16:39.481Z,38.10
2019-06-01T10:19:07.945Z,37.90
2019-06-01T10:21:36.443Z,38.90
2019-06-01T10:24:05.082Z,40.40
2019-06-01T10:26:34.373Z,40.20
2019-06-01T10:29:03.867Z,40.40
2019-06-01T10:31:34.577Z,40.10
2019-06-01T10:34:02.630Z,41.00
2019-06-01T10:36:31.925Z,40.30
2019-06-01T10:39:00.462Z,40.50
2019-06-01T10:41:28.936Z,39.90
2019-06-01T10:43:57.400Z,39.20
2019-06-01T10:46:25.861Z,38.10
2019-06-01T10:48:54.299Z,37.20
2019-06-01T10:51:22.754Z,36.30
2019-06-01T10:53:51.204Z,35.00
2019-06-01T10:56:19.652Z,35.10
2019-06-01T10:58:59.257Z,35.60
2019-06-01T11:01:18.285Z,35.40
2019-06-01T11:03:46.837Z,35.80
2019-06-01T11:06:15.352Z,35.10
2019-06-01T11:08:43.834Z,34.40
2019-06-01T11:11:12.438Z,34.70
2019-06-01T11:13:41.175Z,34.80
2019-06-01T11:16:09.721Z,33.80
2019-06-01T11:18:39.569Z,35.40
2019-06-01T11:21:08.340Z,36.20
2019-06-01T11:23:37.488Z,36.70
2019-06-01T11:26:06.204Z,37.60
2019-06-01T11:28:36.236Z,38.30
2019-06-01T11:31:05.582Z,39.20
2019-06-01T11:33:34.298Z,40.70
2019-06-01T11:36:02.801Z,42.40
2019-06-01T11:38:31.335Z,42.80
2019-06-01T11:40:59.864Z,43.30
2019-06-01T11:43:28.407Z,43.20
2019-06-01T11:45:56.827Z,44.00
2019-06-01T11:48:25.312Z,45.10
2019-06-01T11:50:53.809Z,45.00
2019-06-01T11:53:22.340Z,44.80
2019-06-01T11:55:50.811Z,45.30
2019-06-01T11:58:19.376Z,45.20
2019-06-01T12:00:47.835Z,44.70
2019-06-01T12:03:16.412Z,45.60
2019-06-01T12:05:46.035Z,45.60
2019-06-01T12:08:14.680Z,46.20
2019-06-01T12:10:43.247Z,45.50
2019-06-01T12:13:11.835Z,45.50
2019-06-01T12:15:40.390Z,44.80
2019-06-01T12:18:08.883Z,45.00
2019-06-01T12:20:38.561Z,43.70
2019-06-01T12:23:07.218Z,44.30
2019-06-01T12:25:35.723Z,44.50
2019-06-01T12:28:04.242Z,45.50
2019-06-01T12:30:32.726Z,45.20
2019-06-01T12:33:01.206Z,43.70
2019-06-01T12:35:29.752Z,45.00
2019-06-01T12:38:05.893Z,46.50
2019-06-01T12:40:28.408Z,46.80
2019-06-01T12:42:56.873Z,45.40
2019-06-01T12:45:25.337Z,45.00
2019-06-01T12:47:58.171Z,46.20
2019-06-01T12:50:24.074Z,47.20
2019-06-01T12:52:52.748Z,46.80
2019-06-01T12:55:21.319Z,46.60
2019-06-01T12:57:49.829Z,46.20
2019-06-01T13:00:19.667Z,44.70
2019-06-01T13:02:56.490Z,44.80
2019-06-01T13:05:18.424Z,44.30
2019-06-01T13:07:57.512Z,44.60
2019-06-01T13:10:17.119Z,44.60
2019-06-01T13:12:45.560Z,45.00
2019-06-01T13:15:15.790Z,45.80
2019-06-01T13:17:45.269Z,46.20
2019-06-01T13:20:14.232Z,45.80
2019-06-01T13:22:43.528Z,45.20
2019-06-01T13:25:12.236Z,44.50
2019-06-01T13:27:42.194Z,44.90
2019-06-01T13:30:11.262Z,45.10
2019-06-01T13:32:39.722Z,44.90
2019-06-01T13:35:09.211Z,46.00
2019-06-01T13:37:37.687Z,44.70
2019-06-01T13:40:06.913Z,44.90
2019-06-01T13:42:35.418Z,44.40
2019-06-01T13:45:09.532Z,44.50
2019-06-01T13:47:38.182Z,44.80
2019-06-01T13:50:07.780Z,44.90
2019-06-01T13:52:36.290Z,44.50
2019-06-01T13:55:06.666Z,44.10
2019-06-01T13:57:35.139Z,44.00
2019-06-01T14:00:09.615Z,43.70
2019-06-01T14:02:38.218Z,44.20
2019-06-01T14:05:08.020Z,45.10
2019-06-01T14:07:36.525Z,44.70
2019-06-01T14:10:08.347Z,44.60
2019-06-01T14:12:37.074Z,44.60
2019-06-01T14:15:07.452Z,44.70
2019-06-01T14:17:36.183Z,45.00
2019-06-01T14:20:06.257Z,44.80
2019-06-01T14:22:34.738Z,45.10
2019-06-01T14:25:12.736Z,46.30
2019-06-01T14:27:34.675Z,47.30
2019-06-01T14:30:03.906Z,47.00
2019-06-01T14:32:32.442Z,47.60
2019-06-01T14:35:00.902Z,47.20
2019-06-01T14:37:29.416Z,46.80
2019-06-01T14:39:57.891Z,47.00
2019-06-01T14:42:26.425Z,46.90
2019-06-01T14:44:55.986Z,47.50
2019-06-01T14:47:24.632Z,47.60
2019-06-01T14:49:53.537Z,47.00
2019-06-01T14:52:22.073Z,47.50
2019-06-01T14:54:51.680Z,47.30
2019-06-01T14:57:20.443Z,46.80
2019-06-01T14:59:50.411Z,47.40
2019-06-01T15:02:19.054Z,47.60
2019-06-01T15:04:48.238Z,48.10
2019-06-01T15:07:16.892Z,48.40
2019-06-01T15:09:45.358Z,47.20
2019-06-01T15:12:13.840Z,47.40
2019-06-01T15:14:42.320Z,49.00
2019-06-01T15:17:10.823Z,49.90
2019-06-01T15:19:39.281Z,50.00
2019-06-01T15:22:07.733Z,49.80
2019-06-01T15:24:36.229Z,50.30
2019-06-01T15:27:04.736Z,50.70
2019-06-01T15:29:33.266Z,51.60
2019-06-01T15:32:02.316Z,52.30
2019-06-01T15:34:30.999Z,52.00
2019-06-01T15:36:59.756Z,52.00
2019-06-01T15:39:28.378Z,51.90
2019-06-01T15:41:57.187Z,51.60
2019-06-01T15:44:25.824Z,52.70
2019-06-01T15:46:55.567Z,52.60
2019-06-01T15:49:24.311Z,52.80
2019-06-01T15:51:53.645Z,52.50
2019-06-01T15:54:22.167Z,52.90
2019-06-01T15:56:50.613Z,53.10
2019-06-01T15:59:19.094Z,53.00
2019-06-01T16:01:47.567Z,52.60
2019-06-01T16:04:16.047Z,52.60
2019-06-01T16:06:44.518Z,53.20
2019-06-01T16:09:13.050Z,52.90
2019-06-01T16:11:41.494Z,53.90
2019-06-01T16:14:10.013Z,54.00
2019-06-01T16:16:38.455Z,54.10
2019-06-01T16:19:08.100Z,54.20
2019-06-01T16:21:36.669Z,53.40
2019-06-01T16:24:05.395Z,53.70
2019-06-01T16:26:33.841Z,53.90
2019-06-01T16:29:03.470Z,54.00
2019-06-01T16:31:32.523Z,53.80
2019-06-01T16:34:01.025Z,53.70
2019-06-01T16:36:29.491Z,53.90
2019-06-01T16:39:03.056Z,53.10
2019-06-01T16:41:28.215Z,53.40
2019-06-01T16:43:57.562Z,53.80
2019-06-01T16:46:26.116Z,54.20
2019-06-01T16:48:55.448Z,54.50
2019-06-01T16:51:24.186Z,54.60
2019-06-01T16:53:52.681Z,54.50
2019-06-01T16:56:21.180Z,54.60
2019-06-01T16:58:49.646Z,54.40
2019-06-01T17:01:18.094Z,54.70
2019-06-01T17:03:46.543Z,55.10
2019-06-01T17:06:15.023Z,55.10
2019-06-01T17:08:43.488Z,55.00
2019-06-01T17:11:11.968Z,54.20
2019-06-01T17:13:40.423Z,54.70
2019-06-01T17:16:08.897Z,55.30
2019-06-01T17:18:37.411Z,55.90
2019-06-01T17:21:05.917Z,56.50
2019-06-01T17:23:34.383Z,56.00
2019-06-01T17:26:03.975Z,55.40
2019-06-01T17:28:32.568Z,55.30
2019-06-01T17:31:02.175Z,55.60
2019-06-01T17:33:31.350Z,56.40
2019-06-01T17:36:00.602Z,57.20
2019-06-01T17:38:29.209Z,57.40
2019-06-01T17:40:57.655Z,57.40
2019-06-01T17:43:26.125Z,57.30
2019-06-01T17:45:54.615Z,57.70
2019-06-01T17:48:26.733Z,57.60
2019-06-01T17:50:53.347Z,58.00
2019-06-01T17:53:21.937Z,58.20
2019-06-01T17:55:50.476Z,58.40
2019-06-01T17:58:18.953Z,58.10
2019-06-01T18:00:47.540Z,57.80
2019-06-01T18:03:16.022Z,57.80
2019-06-01T18:05:47.635Z,57.80
2019-06-01T18:08:16.226Z,57.90
2019-06-01T18:10:53.802Z,58.20
2019-06-01T18:13:15.094Z,58.80
2019-06-01T18:15:43.654Z,59.00
2019-06-01T18:18:12.876Z,58.60
2019-06-01T18:20:41.628Z,58.90
2019-06-01T18:23:11.457Z,59.20
2019-06-01T18:25:40.447Z,59.30
2019-06-01T18:28:15.074Z,59.60
2019-06-01T18:30:39.216Z,59.80
2019-06-01T18:33:08.940Z,59.90
2019-06-01T18:35:37.551Z,59.80
2019-06-01T18:38:06.085Z,59.90
2019-06-01T18:40:34.738Z,60.10
2019-06-01T18:43:07.764Z,60.00
2019-06-01T18:45:36.788Z,60.10
2019-06-01T18:48:06.153Z,60.30
2019-06-01T18:50:34.822Z,60.10
2019-06-01T18:53:03.887Z,60.10
2019-06-01T18:55:35.539Z,60.00
2019-06-01T18:58:03.948Z,60.40
2019-06-01T19:00:32.811Z,60.40
2019-06-01T19:03:01.335Z,60.70
2019-06-01T19:05:29.856Z,61.10
2019-06-01T19:07:58.311Z,61.00
2019-06-01T19:10:26.818Z,61.30
2019-06-01T19:12:55.275Z,61.60
2019-06-01T19:15:28.579Z,61.90
2019-06-01T19:17:54.009Z,62.10
2019-06-01T19:20:22.540Z,62.50
2019-06-01T19:22:51.635Z,61.90
2019-06-01T19:25:20.213Z,62.40
2019-06-01T19:27:48.841Z,62.50
2019-06-01T19:30:23.294Z,62.60
2019-06-01T19:32:51.859Z,62.70
2019-06-01T19:35:20.326Z,63.30
2019-06-01T19:37:48.872Z,63.60
2019-06-01T19:40:20.510Z,64.10
2019-06-01T19:42:48.938Z,64.70
2019-06-01T19:45:27.716Z,64.40
2019-06-01T19:47:49.773Z,64.80
2019-06-01T19:50:19.159Z,65.20
2019-06-01T19:52:47.632Z,65.50
2019-06-01T19:55:17.005Z,66.10
2019-06-01T19:57:45.682Z,66.40
2019-06-01T20:00:14.320Z,66.50
2019-06-01T20:02:42.882Z,67.00
2019-06-01T20:05:12.923Z,67.20
2019-06-01T20:07:41.533Z,67.20
2019-06-01T20:10:10.367Z,67.40
2019-06-01T20:12:38.913Z,67.60
2019-06-01T20:15:08.075Z,68.00
2019-06-01T20:17:36.562Z,67.90
2019-06-01T20:20:08.911Z,68.70
2019-06-01T20:22:37.345Z,68.40
2019-06-01T20:25:07.052Z,68.00
2019-06-01T20:27:35.668Z,68.40
2019-06-01T20:30:06.574Z,68.10
2019-06-01T20:32:35.131Z,68.30
2019-06-01T20:35:05.764Z,68.20
2019-06-01T20:37:34.268Z,68.30
2019-06-01T20:40:03.181Z,68.30
2019-06-01T20:42:33.014Z,68.60
2019-06-01T20:45:01.650Z,68.90
2019-06-01T20:47:30.187Z,69.30
2019-06-01T20:49:58.785Z,69.60
2019-06-01T20:52:28.010Z,69.90
2019-06-01T20:54:56.503Z,70.20
2019-06-01T20:57:24.959Z,70.50
2019-06-01T20:59:53.397Z,70.60
2019-06-01T21:02:21.902Z,71.10
2019-06-01T21:04:50.429Z,71.50
2019-06-01T21:07:19.958Z,72.10
2019-06-01T21:09:48.583Z,72.50
2019-06-01T21:12:18.439Z,72.50
2019-06-01T21:14:47.019Z,72.80
2019-06-01T21:17:16.470Z,73.30
2019-06-01T21:19:45.108Z,73.90
2019-06-01T21:22:14.457Z,73.30
2019-06-01T21:24:43.140Z,73.30
2019-06-01T21:27:11.659Z,74.30
2019-06-01T21:29:40.171Z,73.80
2019-06-01T21:32:08.666Z,73.90
2019-06-01T21:34:37.108Z,74.00
2019-06-01T21:37:05.591Z,74.00
2019-06-01T21:39:34.690Z,73.50
2019-06-01T21:42:03.140Z,73.40
2019-06-01T21:44:31.583Z,73.50
2019-06-01T21:47:00.033Z,72.40
2019-06-01T21:49:28.474Z,72.30
2019-06-01T21:51:56.946Z,71.70
2019-06-01T21:54:26.358Z,71.30
2019-06-01T21:56:55.002Z,70.60
2019-06-01T21:59:24.801Z,70.80
2019-06-01T22:01:53.427Z,70.50
2019-06-01T22:04:23.006Z,69.90
2019-06-01T22:06:51.727Z,70.30
2019-06-01T22:09:21.249Z,70.10
2019-06-01T22:11:49.879Z,70.40
2019-06-01T22:14:19.383Z,69.60
2019-06-01T22:16:48.063Z,69.10
2019-06-01T22:19:17.546Z,68.90
2019-06-01T22:21:46.136Z,69.40
2019-06-01T22:24:14.610Z,69.90
2019-06-01T22:26:43.076Z,69.40
2019-06-01T22:29:11.592Z,70.20
2019-06-01T22:31:40.056Z,71.20
2019-06-01T22:34:08.508Z,70.50
2019-06-01T22:36:36.969Z,71.60
2019-06-01T22:39:07.665Z,72.10
2019-06-01T22:41:36.270Z,72.50
2019-06-01T22:44:04.895Z,72.70
2019-06-01T22:46:33.358Z,73.50
2019-06-01T22:49:01.837Z,74.20
2019-06-01T22:51:30.339Z,75.10
2019-06-01T22:53:58.782Z,75.10
2019-06-01T22:56:27.365Z,76.10
2019-06-01T22:58:55.856Z,77.30
2019-06-01T23:01:24.716Z,78.20
2019-06-01T23:03:53.334Z,78.50
2019-06-01T23:06:22.813Z,79.40
2019-06-01T23:08:52.179Z,78.70
2019-06-01T23:11:21.338Z,79.80
2019-06-01T23:13:53.694Z,80.20
2019-06-01T23:16:21.512Z,80.90
2019-06-01T23:18:50.174Z,81.70
2019-06-01T23:21:18.744Z,81.90
2019-06-01T23:23:47.253Z,82.90
2019-06-01T23:26:15.783Z,83.80
2019-06-01T23:28:44.228Z,84.80
2019-06-01T23:31:12.722Z,85.40
2019-06-01T23:33:41.384Z,85.90
2019-06-01T23:36:10.487Z,86.60
2019-06-01T23:38:39.258Z,86.20
2019-06-01T23:41:07.838Z,86.50
2019-06-01T23:43:36.367Z,87.20
2019-06-01T23:46:04.956Z,88.00
2019-06-01T23:48:34.081Z,88.30
2019-06-01T23:51:02.752Z,88.30
2019-06-01T23:53:31.615Z,88.50
2019-06-01T23:56:01.773Z,89.00
2019-06-01T23:58:32.612Z,89.20
